createdAt,value
2018-12-12T00:00:47.380Z,1.90
2018-12-12T00:03:16.356Z,2.00
2018-12-12T00:05:45.091Z,1.90
2018-12-12T00:08:14.131Z,1.90
2018-12-12T00:10:42.993Z,1.90
2018-12-12T00:13:11.797Z,1.90
2018-12-12T00:15:40.720Z,1.90
2018-12-12T00:18:10.097Z,1.80
2018-12-12T00:20:39.211Z,1.80
2018-12-12T00:23:08.314Z,1.60
2018-12-12T00:25:37.177Z,1.70
2018-12-12T00:28:06.155Z,1.80
2018-12-12T00:30:35.255Z,2.00
2018-12-12T00:33:04.231Z,1.80
2018-12-12T00:35:33.395Z,1.80
2018-12-12T00:38:02.131Z,1.70
2018-12-12T00:40:31.057Z,1.70
2018-12-12T00:42:59.910Z,1.70
2018-12-12T00:45:28.796Z,1.70
2018-12-12T00:47:57.584Z,1.60
2018-12-12T00:50:26.555Z,1.60
2018-12-12T00:52:55.470Z,1.70
2018-12-12T00:55:24.456Z,1.70
2018-12-12T00:57:53.790Z,1.80
2018-12-12T01:00:22.828Z,1.80
2018-12-12T01:02:51.683Z,1.80
2018-12-12T01:05:20.730Z,1.80
2018-12-12T01:07:49.923Z,1.70
2018-12-12T01:10:18.807Z,1.80
2018-12-12T01:12:47.905Z,1.80
2018-12-12T01:15:17.067Z,1.70
2018-12-12T01:17:45.879Z,1.80
2018-12-12T01:20:15.026Z,1.90
2018-12-12T01:22:43.949Z,2.00
2018-12-12T01:25:12.866Z,1.90
2018-12-12T01:27:41.604Z,1.90
2018-12-12T01:30:10.523Z,1.80
2018-12-12T01:32:39.747Z,1.80
2018-12-12T01:35:08.831Z,1.80
2018-12-12T01:37:44.123Z,1.80
2018-12-12T01:40:13.057Z,1.80
2018-12-12T01:42:42.034Z,1.90
2018-12-12T01:45:11.003Z,1.90
2018-12-12T01:47:40.340Z,1.90
2018-12-12T01:50:09.329Z,1.80
2018-12-12T01:52:38.222Z,1.70
2018-12-12T01:55:07.110Z,1.80
2018-12-12T01:57:35.838Z,1.90
2018-12-12T02:00:05.545Z,1.90
2018-12-12T02:02:34.389Z,1.90
2018-12-12T02:05:03.438Z,2.00
2018-12-12T02:07:32.304Z,2.00
2018-12-12T02:10:01.701Z,2.10
2018-12-12T02:12:30.439Z,2.20
2018-12-12T02:14:59.542Z,2.10
2018-12-12T02:17:28.224Z,1.90
2018-12-12T02:19:57.329Z,1.70
2018-12-12T02:22:26.301Z,1.80
2018-12-12T02:24:55.219Z,1.90
2018-12-12T02:27:24.217Z,2.00
2018-12-12T02:29:53.182Z,2.10
2018-12-12T02:32:22.349Z,2.00
2018-12-12T02:34:51.202Z,2.00
2018-12-12T02:37:20.200Z,2.10
2018-12-12T02:39:49.100Z,2.10
2018-12-12T02:42:17.946Z,2.00
2018-12-12T02:44:46.770Z,2.00
2018-12-12T02:47:15.738Z,2.10
2018-12-12T02:49:44.714Z,2.10
2018-12-12T02:52:13.581Z,2.20
2018-12-12T02:54:42.551Z,2.00
2018-12-12T02:57:11.484Z,2.00
2018-12-12T02:59:44.354Z,1.90
2018-12-12T03:02:13.579Z,1.90
2018-12-12T03:04:42.495Z,1.90
2018-12-12T03:07:11.415Z,1.90
2018-12-12T03:09:40.336Z,1.90
2018-12-12T03:12:09.320Z,1.80
2018-12-12T03:14:38.112Z,1.90
2018-12-12T03:17:07.031Z,2.00
2018-12-12T03:19:36.193Z,2.10
2018-12-12T03:22:05.288Z,2.10
2018-12-12T03:24:34.277Z,2.20
2018-12-12T03:27:03.134Z,2.20
2018-12-12T03:29:31.872Z,2.20
2018-12-12T03:32:00.691Z,2.20
2018-12-12T03:34:29.837Z,2.20
2018-12-12T03:36:58.753Z,2.10
2018-12-12T03:39:27.666Z,2.00
2018-12-12T03:41:56.807Z,1.80
2018-12-12T03:44:25.593Z,1.60
2018-12-12T03:46:54.614Z,1.70
2018-12-12T03:49:23.467Z,1.80
2018-12-12T03:51:52.508Z,1.80
2018-12-12T03:54:21.456Z,2.00
2018-12-12T03:56:50.347Z,1.90
2018-12-12T03:59:19.253Z,1.80
2018-12-12T04:01:48.243Z,1.70
2018-12-12T04:04:17.169Z,1.50
2018-12-12T04:06:45.969Z,1.50
2018-12-12T04:09:14.891Z,1.60
2018-12-12T04:11:43.744Z,1.50
2018-12-12T04:14:12.727Z,1.40
2018-12-12T04:16:41.762Z,1.30
2018-12-12T04:19:10.934Z,1.20
2018-12-12T04:21:39.786Z,1.10
2018-12-12T04:24:08.739Z,1.00
2018-12-12T04:26:37.927Z,1.10
2018-12-12T04:29:07.028Z,1.20
2018-12-12T04:31:35.824Z,1.10
2018-12-12T04:34:04.929Z,1.30
2018-12-12T04:36:33.659Z,1.30
2018-12-12T04:39:02.654Z,1.20
2018-12-12T04:41:31.982Z,1.20
2018-12-12T04:44:01.083Z,1.40
2018-12-12T04:46:29.826Z,1.40
2018-12-12T04:48:58.859Z,1.50
2018-12-12T04:51:27.723Z,1.50
2018-12-12T04:53:56.644Z,1.40
2018-12-12T04:56:25.500Z,1.50
2018-12-12T04:58:55.322Z,1.50
2018-12-12T05:01:24.422Z,1.60
2018-12-12T05:03:53.282Z,1.60
2018-12-12T05:06:28.758Z,1.70
2018-12-12T05:08:57.543Z,1.60
2018-12-12T05:11:26.526Z,1.50
2018-12-12T05:13:55.628Z,1.60
2018-12-12T05:16:24.723Z,1.50
2018-12-12T05:18:53.616Z,1.40
2018-12-12T05:21:22.617Z,1.40
2018-12-12T05:23:51.604Z,1.40
2018-12-12T05:26:20.405Z,1.40
2018-12-12T05:28:49.269Z,1.40
2018-12-12T05:31:18.363Z,1.50
2018-12-12T05:33:47.399Z,1.60
2018-12-12T05:36:16.323Z,1.60
2018-12-12T05:38:45.296Z,1.60
2018-12-12T05:41:14.399Z,1.60
2018-12-12T05:43:43.627Z,1.60
2018-12-12T05:46:12.629Z,1.70
2018-12-12T05:48:41.648Z,1.70
2018-12-12T05:51:10.440Z,1.80
2018-12-12T05:53:39.593Z,1.80
2018-12-12T05:56:13.898Z,1.90
2018-12-12T05:58:42.592Z,2.00
2018-12-12T06:01:11.516Z,1.90
2018-12-12T06:03:40.473Z,1.80
2018-12-12T06:06:09.356Z,1.90
2018-12-12T06:08:41.519Z,1.70
2018-12-12T06:11:10.491Z,1.70
2018-12-12T06:13:39.408Z,1.50
2018-12-12T06:16:08.397Z,1.60
2018-12-12T06:18:37.393Z,1.70
2018-12-12T06:21:06.236Z,1.80
2018-12-12T06:23:35.155Z,1.90
2018-12-12T06:26:04.076Z,2.00
2018-12-12T06:28:33.049Z,1.90
2018-12-12T06:31:02.520Z,1.90
2018-12-12T06:33:32.111Z,2.00
2018-12-12T06:36:01.088Z,2.00
2018-12-12T06:38:30.064Z,2.00
2018-12-12T06:40:58.850Z,2.00
2018-12-12T06:43:27.952Z,2.00
2018-12-12T06:45:57.472Z,2.10
2018-12-12T06:48:26.529Z,2.10
2018-12-12T06:50:55.839Z,2.00
2018-12-12T06:53:25.380Z,2.00
2018-12-12T06:55:54.712Z,2.00
2018-12-12T06:58:24.249Z,2.10
2018-12-12T07:00:53.630Z,2.00
2018-12-12T07:03:22.512Z,2.10
2018-12-12T07:05:51.406Z,2.00
2018-12-12T07:08:32.988Z,2.10
2018-12-12T07:11:01.967Z,2.10
2018-12-12T07:13:35.679Z,2.20
2018-12-12T07:16:02.147Z,2.20
2018-12-12T07:18:30.885Z,2.20
2018-12-12T07:20:59.866Z,2.20
2018-12-12T07:23:29.148Z,2.00
2018-12-12T07:25:58.310Z,2.00
2018-12-12T07:28:27.707Z,2.00
2018-12-12T07:30:56.675Z,2.00
2018-12-12T07:33:25.788Z,2.10
2018-12-12T07:35:59.404Z,2.20
2018-12-12T07:38:26.205Z,2.20
2018-12-12T07:40:55.545Z,2.20
2018-12-12T07:43:24.393Z,2.30
2018-12-12T07:45:53.870Z,2.20
2018-12-12T07:48:23.388Z,2.30
2018-12-12T07:50:52.305Z,2.30
2018-12-12T07:53:21.346Z,2.30
2018-12-12T07:55:50.385Z,2.30
2018-12-12T07:58:19.427Z,2.40
2018-12-12T08:00:48.464Z,2.40
2018-12-12T08:03:17.395Z,2.40
2018-12-12T08:05:46.424Z,2.40
2018-12-12T08:08:15.441Z,2.40
2018-12-12T08:10:44.424Z,2.40
2018-12-12T08:13:31.340Z,2.40
2018-12-12T08:16:00.607Z,2.50
2018-12-12T08:18:29.864Z,2.60
2018-12-12T08:20:58.665Z,2.60
2018-12-12T08:23:27.840Z,2.60
2018-12-12T08:25:57.046Z,2.60
2018-12-12T08:28:26.041Z,2.60
2018-12-12T08:30:55.062Z,2.60
2018-12-12T08:33:24.103Z,2.60
2018-12-12T08:35:53.084Z,2.50
2018-12-12T08:38:22.376Z,2.60
2018-12-12T08:40:51.700Z,2.70
2018-12-12T08:43:20.860Z,2.70
2018-12-12T08:45:50.166Z,2.70
2018-12-12T08:48:19.340Z,2.70
2018-12-12T08:50:49.067Z,2.70
2018-12-12T08:53:18.396Z,2.80
2018-12-12T08:55:47.858Z,2.70
2018-12-12T08:58:17.269Z,2.80
2018-12-12T09:00:46.299Z,2.90
2018-12-12T09:03:17.794Z,3.00
2018-12-12T09:05:47.635Z,3.00
2018-12-12T09:08:17.018Z,3.00
2018-12-12T09:10:46.113Z,2.90
2018-12-12T09:13:15.522Z,3.00
2018-12-12T09:15:45.146Z,3.00
2018-12-12T09:18:14.379Z,3.00
2018-12-12T09:20:43.898Z,3.10
2018-12-12T09:23:13.061Z,3.10
2018-12-12T09:25:42.462Z,3.20
2018-12-12T09:28:12.155Z,3.20
2018-12-12T09:30:41.495Z,3.10
2018-12-12T09:33:10.897Z,3.20
2018-12-12T09:35:40.249Z,3.20
2018-12-12T09:38:09.454Z,3.20
2018-12-12T09:40:39.279Z,3.30
2018-12-12T09:43:08.749Z,3.30
2018-12-12T09:45:38.410Z,3.30
2018-12-12T09:48:08.517Z,3.30
2018-12-12T09:50:38.158Z,3.40
2018-12-12T09:53:08.075Z,3.40
2018-12-12T09:55:37.549Z,3.40
2018-12-12T09:58:07.290Z,3.50
2018-12-12T10:00:37.104Z,3.50
2018-12-12T10:03:06.826Z,3.50
2018-12-12T10:05:36.218Z,3.50
2018-12-12T10:08:06.103Z,3.50
2018-12-12T10:10:35.227Z,3.60
2018-12-12T10:13:04.418Z,3.60
2018-12-12T10:15:33.684Z,3.60
2018-12-12T10:18:02.968Z,3.70
2018-12-12T10:20:32.488Z,3.70
2018-12-12T10:23:01.772Z,3.70
2018-12-12T10:25:31.166Z,3.80
2018-12-12T10:28:00.712Z,3.80
2018-12-12T10:30:30.219Z,3.90
2018-12-12T10:32:59.378Z,3.80
2018-12-12T10:35:28.782Z,3.80
2018-12-12T10:37:58.054Z,3.90
2018-12-12T10:40:27.814Z,3.90
2018-12-12T10:42:57.134Z,4.00
2018-12-12T10:45:26.241Z,4.00
2018-12-12T10:47:55.280Z,4.00
2018-12-12T10:50:24.683Z,4.10
2018-12-12T10:52:53.726Z,4.10
2018-12-12T10:55:22.698Z,4.10
2018-12-12T10:57:51.561Z,4.10
2018-12-12T11:00:20.604Z,4.20
2018-12-12T11:02:54.087Z,4.30
2018-12-12T11:05:23.241Z,4.30
2018-12-12T11:07:52.044Z,4.30
2018-12-12T11:10:21.197Z,4.40
2018-12-12T11:12:50.477Z,4.40
2018-12-12T11:15:19.519Z,4.50
2018-12-12T11:17:48.393Z,4.40
2018-12-12T11:20:17.358Z,4.50
2018-12-12T11:22:46.767Z,4.50
2018-12-12T11:25:15.918Z,4.40
2018-12-12T11:27:45.076Z,4.50
2018-12-12T11:30:14.236Z,4.60
2018-12-12T11:32:43.036Z,4.50
2018-12-12T11:35:12.205Z,4.40
2018-12-12T11:37:41.313Z,4.30
2018-12-12T11:40:10.754Z,4.40
2018-12-12T11:42:39.807Z,4.50
2018-12-12T11:45:08.951Z,4.50
2018-12-12T11:47:37.996Z,4.40
2018-12-12T11:50:07.395Z,4.50
2018-12-12T11:52:36.791Z,4.50
2018-12-12T11:55:06.334Z,4.50
2018-12-12T11:57:36.077Z,4.60
2018-12-12T12:00:06.021Z,4.60
2018-12-12T12:02:35.838Z,4.60
2018-12-12T12:05:05.717Z,4.60
2018-12-12T12:07:35.003Z,4.60
2018-12-12T12:10:04.420Z,4.50
2018-12-12T12:12:33.704Z,4.50
2018-12-12T12:15:03.622Z,4.50
2018-12-12T12:17:33.194Z,4.50
2018-12-12T12:20:02.851Z,4.60
2018-12-12T12:22:32.373Z,4.60
2018-12-12T12:25:02.011Z,4.60
2018-12-12T12:27:31.506Z,4.50
2018-12-12T12:30:01.031Z,4.70
2018-12-12T12:32:30.281Z,4.80
2018-12-12T12:35:00.222Z,4.70
2018-12-12T12:37:29.732Z,4.80
2018-12-12T12:39:58.922Z,4.70
2018-12-12T12:42:28.068Z,4.70
2018-12-12T12:44:57.423Z,4.80
2018-12-12T12:47:26.763Z,4.70
2018-12-12T12:49:56.592Z,4.70
2018-12-12T12:52:25.848Z,4.80
2018-12-12T12:54:55.442Z,4.70
2018-12-12T12:57:24.838Z,4.60
2018-12-12T12:59:54.300Z,4.70
2018-12-12T13:02:23.703Z,4.70
2018-12-12T13:04:52.986Z,4.70
2018-12-12T13:07:22.572Z,4.70
2018-12-12T13:09:52.264Z,4.70
2018-12-12T13:12:21.980Z,4.80
2018-12-12T13:14:51.677Z,4.90
2018-12-12T13:17:21.184Z,4.90
2018-12-12T13:19:50.940Z,5.00
2018-12-12T13:22:20.617Z,5.00
2018-12-12T13:24:50.456Z,5.00
2018-12-12T13:27:19.979Z,5.10
2018-12-12T13:29:49.652Z,5.10
2018-12-12T13:32:20.899Z,5.10
2018-12-12T13:34:51.216Z,5.00
2018-12-12T13:37:21.061Z,5.00
2018-12-12T13:39:50.662Z,5.00
2018-12-12T13:42:20.682Z,5.00
2018-12-12T13:44:50.154Z,4.90
2018-12-12T13:47:19.760Z,4.80
2018-12-12T13:49:49.609Z,4.80
2018-12-12T13:52:19.133Z,4.70
2018-12-12T13:54:48.909Z,4.70
2018-12-12T13:57:18.502Z,4.70
2018-12-12T13:59:47.513Z,4.80
2018-12-12T14:02:18.213Z,4.80
2018-12-12T14:04:48.076Z,4.80
2018-12-12T14:07:17.685Z,4.70
2018-12-12T14:09:46.987Z,4.70
2018-12-12T14:12:17.446Z,4.50
2018-12-12T14:14:46.960Z,4.50
2018-12-12T14:17:16.150Z,4.70
2018-12-12T14:19:46.019Z,4.80
2018-12-12T14:22:15.658Z,4.60
2018-12-12T14:24:45.061Z,4.60
2018-12-12T14:27:14.756Z,4.80
2018-12-12T14:29:44.389Z,4.70
2018-12-12T14:32:14.134Z,4.70
2018-12-12T14:34:43.729Z,4.80
2018-12-12T14:37:13.009Z,4.70
2018-12-12T14:39:43.515Z,4.60
2018-12-12T14:42:13.136Z,4.60
2018-12-12T14:44:42.778Z,4.60
2018-12-12T14:47:12.309Z,4.50
2018-12-12T14:49:42.292Z,4.40
2018-12-12T14:52:11.612Z,4.20
2018-12-12T14:54:40.937Z,4.20
2018-12-12T14:57:10.877Z,4.10
2018-12-12T14:59:40.329Z,4.10
2018-12-12T15:02:09.889Z,4.30
2018-12-12T15:04:39.076Z,4.00
2018-12-12T15:07:08.457Z,3.90
2018-12-12T15:09:38.052Z,4.00
2018-12-12T15:12:07.693Z,4.10
2018-12-12T15:14:37.167Z,4.00
2018-12-12T15:17:06.800Z,3.70
2018-12-12T15:19:36.404Z,3.50
2018-12-12T15:22:05.801Z,3.70
2018-12-12T15:24:35.556Z,3.70
2018-12-12T15:27:05.446Z,3.80
2018-12-12T15:29:34.840Z,3.70
2018-12-12T15:32:04.533Z,3.70
2018-12-12T15:34:34.127Z,3.50
2018-12-12T15:37:03.639Z,3.30
2018-12-12T15:39:33.194Z,3.30
2018-12-12T15:42:02.590Z,3.20
2018-12-12T15:44:32.388Z,3.10
2018-12-12T15:47:01.602Z,3.20
2018-12-12T15:49:31.009Z,3.30
2018-12-12T15:52:00.422Z,3.10
2018-12-12T15:54:29.931Z,3.20
2018-12-12T15:56:59.898Z,3.10
2018-12-12T15:59:29.333Z,2.90
2018-12-12T16:01:58.793Z,2.90
2018-12-12T16:04:28.189Z,2.80
2018-12-12T16:06:57.154Z,2.90
2018-12-12T16:09:25.833Z,2.80
2018-12-12T16:11:54.757Z,2.80
2018-12-12T16:14:23.745Z,2.80
2018-12-12T16:16:52.835Z,2.70
2018-12-12T16:19:22.355Z,2.90
2018-12-12T16:23:15.515Z,2.80
2018-12-12T16:25:44.074Z,2.70
2018-12-12T16:28:12.974Z,2.50
2018-12-12T16:30:41.862Z,2.50
2018-12-12T16:33:10.887Z,2.60
2018-12-12T16:35:39.994Z,2.70
2018-12-12T16:38:09.040Z,2.70
2018-12-12T16:40:49.706Z,2.90
2018-12-12T16:43:18.748Z,2.80
2018-12-12T16:45:47.585Z,2.80
2018-12-12T16:48:16.710Z,2.80
2018-12-12T16:50:45.511Z,2.80
2018-12-12T16:53:14.307Z,2.90
2018-12-12T16:55:43.227Z,2.90
2018-12-12T16:58:12.439Z,3.00
2018-12-12T17:00:41.793Z,2.80
2018-12-12T17:03:10.709Z,2.80
2018-12-12T17:05:39.626Z,2.80
2018-12-12T17:08:08.669Z,2.80
2018-12-12T17:10:37.803Z,2.70
2018-12-12T17:13:06.933Z,2.70
2018-12-12T17:15:36.265Z,2.80
2018-12-12T17:18:05.303Z,2.80
2018-12-12T17:20:34.389Z,2.70
2018-12-12T17:23:03.505Z,2.70
2018-12-12T17:25:32.545Z,2.60
2018-12-12T17:28:01.568Z,2.50
2018-12-12T17:30:30.561Z,2.70
2018-12-12T17:32:59.844Z,2.50
2018-12-12T17:35:28.821Z,2.60
2018-12-12T17:37:58.045Z,2.60
2018-12-12T17:40:27.282Z,2.80
2018-12-12T17:42:56.537Z,2.70
2018-12-12T17:45:25.426Z,2.80
2018-12-12T17:47:54.320Z,2.70
2018-12-12T17:50:23.302Z,2.80
2018-12-12T17:52:52.102Z,2.80
2018-12-12T17:55:21.025Z,2.80
2018-12-12T17:57:49.944Z,2.80
2018-12-12T18:00:19.102Z,2.70
2018-12-12T18:02:48.022Z,2.80
2018-12-12T18:05:16.943Z,2.80
2018-12-12T18:07:45.862Z,2.80
2018-12-12T18:10:14.925Z,2.60
2018-12-12T18:12:43.620Z,2.60
2018-12-12T18:15:12.558Z,2.70
2018-12-12T18:17:41.660Z,2.70
2018-12-12T18:20:10.530Z,2.80
2018-12-12T18:22:39.480Z,2.70
2018-12-12T18:25:10.103Z,2.90
2018-12-12T18:27:39.138Z,2.90
2018-12-12T18:30:09.016Z,3.00
2018-12-12T18:32:38.473Z,2.90
2018-12-12T18:35:07.709Z,3.00
2018-12-12T18:37:36.742Z,3.00
2018-12-12T18:40:05.955Z,3.10
2018-12-12T18:42:35.302Z,3.30
2018-12-12T18:45:04.634Z,3.10
2018-12-12T18:47:34.379Z,3.20
2018-12-12T18:50:03.377Z,3.20
2018-12-12T18:52:32.300Z,3.10
2018-12-12T18:55:01.212Z,3.00
2018-12-12T18:57:30.142Z,3.00
2018-12-12T18:59:59.262Z,3.10
2018-12-12T19:02:35.053Z,3.10
2018-12-12T19:05:04.454Z,3.10
2018-12-12T19:07:33.428Z,3.10
2018-12-12T19:10:02.590Z,3.00
2018-12-12T19:12:31.816Z,3.20
2018-12-12T19:15:02.892Z,3.20
2018-12-12T19:17:32.033Z,3.20
2018-12-12T19:20:00.979Z,3.10
2018-12-12T19:22:29.930Z,3.00
2018-12-12T19:24:59.177Z,3.10
2018-12-12T19:27:28.204Z,3.10
2018-12-12T19:29:57.036Z,3.00
2018-12-12T19:32:26.051Z,3.00
2018-12-12T19:34:54.970Z,2.90
2018-12-12T19:37:24.319Z,3.00
2018-12-12T19:39:53.656Z,3.00
2018-12-12T19:42:22.933Z,3.00
2018-12-12T19:44:51.857Z,3.10
2018-12-12T19:47:21.313Z,3.00
2018-12-12T19:49:50.410Z,3.00
2018-12-12T19:52:19.689Z,3.00
2018-12-12T19:54:48.607Z,3.00
2018-12-12T19:57:17.634Z,3.60
2018-12-12T19:59:46.689Z,3.00
2018-12-12T20:02:15.728Z,3.00
2018-12-12T20:04:44.608Z,3.00
2018-12-12T20:07:13.496Z,3.00
2018-12-12T20:09:42.283Z,3.00
2018-12-12T20:12:11.405Z,3.00
2018-12-12T20:14:40.326Z,3.10
2018-12-12T20:17:09.183Z,3.00
2018-12-12T20:19:38.288Z,3.20
2018-12-12T20:22:07.267Z,3.20
2018-12-12T20:24:36.244Z,3.20
2018-12-12T20:27:05.429Z,3.10
2018-12-12T20:29:34.138Z,3.10
2018-12-12T20:32:03.363Z,3.10
2018-12-12T20:34:32.403Z,3.10
2018-12-12T20:37:01.378Z,3.20
2018-12-12T20:39:30.184Z,3.20
2018-12-12T20:41:59.043Z,3.20
2018-12-12T20:44:27.725Z,3.20
2018-12-12T20:46:56.526Z,3.20
2018-12-12T20:49:25.564Z,3.10
2018-12-12T20:51:54.362Z,3.20
2018-12-12T20:54:23.100Z,3.20
2018-12-12T20:56:52.091Z,3.20
2018-12-12T20:59:20.983Z,3.20
2018-12-12T21:01:50.409Z,3.20
2018-12-12T21:04:19.325Z,3.30
2018-12-12T21:06:48.121Z,3.30
2018-12-12T21:09:17.259Z,3.20
2018-12-12T21:11:46.078Z,3.30
2018-12-12T21:14:14.881Z,3.30
2018-12-12T21:16:43.737Z,3.30
2018-12-12T21:19:12.838Z,3.30
2018-12-12T21:21:41.575Z,3.20
2018-12-12T21:24:10.498Z,3.20
2018-12-12T21:26:39.297Z,3.20
2018-12-12T21:29:08.061Z,3.20
2018-12-12T21:31:37.202Z,3.20
2018-12-12T21:34:06.238Z,3.20
2018-12-12T21:36:35.037Z,3.20
2018-12-12T21:39:05.177Z,3.20
2018-12-12T21:41:34.196Z,3.20
2018-12-12T21:44:03.053Z,3.30
2018-12-12T21:46:32.281Z,3.30
2018-12-12T21:49:01.310Z,3.30
2018-12-12T21:51:30.314Z,3.30
2018-12-12T21:54:04.811Z,3.30
2018-12-12T21:56:33.713Z,3.30
2018-12-12T21:59:02.820Z,3.30
2018-12-12T22:01:31.911Z,3.40
2018-12-12T22:04:00.806Z,3.40
2018-12-12T22:06:29.689Z,3.30
2018-12-12T22:08:58.552Z,3.30
2018-12-12T22:11:27.473Z,3.40
2018-12-12T22:13:56.635Z,3.30
2018-12-12T22:16:25.792Z,3.20
2018-12-12T22:18:54.546Z,3.30
2018-12-12T22:21:23.754Z,3.30
2018-12-12T22:23:52.674Z,3.30
2018-12-12T22:26:21.621Z,3.20
2018-12-12T22:28:50.688Z,3.30
2018-12-12T22:31:19.912Z,3.30
2018-12-12T22:33:49.188Z,3.30
2018-12-12T22:36:18.199Z,3.20
2018-12-12T22:38:47.190Z,3.20
2018-12-12T22:41:16.078Z,3.20
2018-12-12T22:43:44.806Z,3.20
2018-12-12T22:46:13.792Z,3.20
2018-12-12T22:48:42.706Z,3.20
2018-12-12T22:51:11.563Z,3.20
2018-12-12T22:53:40.667Z,3.20
2018-12-12T22:56:09.346Z,3.30
2018-12-12T22:58:38.505Z,3.20
2018-12-12T23:01:10.428Z,3.20
2018-12-12T23:03:39.227Z,3.00
2018-12-12T23:06:08.386Z,3.10
2018-12-12T23:08:37.363Z,3.10
2018-12-12T23:11:06.637Z,3.10
2018-12-12T23:13:35.867Z,3.10
2018-12-12T23:16:10.456Z,3.10
2018-12-12T23:18:39.754Z,3.10
2018-12-12T23:21:08.848Z,3.10
2018-12-12T23:23:37.737Z,3.30
2018-12-12T23:26:07.004Z,3.20
2018-12-12T23:28:35.983Z,3.20
2018-12-12T23:31:04.780Z,3.10
2018-12-12T23:33:33.705Z,3.10
2018-12-12T23:36:02.435Z,3.20
2018-12-12T23:38:31.421Z,3.20
2018-12-12T23:41:00.281Z,3.20
2018-12-12T23:43:29.170Z,5.50
2018-12-12T23:45:58.180Z,3.00
2018-12-12T23:48:26.984Z,3.00
2018-12-12T23:50:55.899Z,3.00
2018-12-12T23:53:25.186Z,3.10
2018-12-12T23:55:54.400Z,3.10
2018-12-12T23:58:23.739Z,3.10
